sensor_id;sensor_type;location;lat;lon;timestamp;temperature;humidity
75113;DHT22;63692;47.338;8.520;2023-05-29T05:07:02;13.40;99.90
75113;DHT22;63692;47.338;8.520;2023-05-29T05:16:58;13.50;99.90
75113;DHT22;63692;47.338;8.520;2023-05-29T05:31:42;14.10;99.90
75113;DHT22;63692;47.338;8.520;2023-05-29T05:34:07;14.30;99.90
75113;DHT22;63692;47.338;8.520;2023-05-29T05:39:05;14.60;99.90
75113;DHT22;63692;47.338;8.520;2023-05-29T05:41:30;14.70;99.90
75113;DHT22;63692;47.338;8.520;2023-05-29T05:43:56;14.70;99.90
75113;DHT22;63692;47.338;8.520;2023-05-29T05:46:22;14.80;99.50
75113;DHT22;63692;47.338;8.520;2023-05-29T06:03:47;15.40;96.20
75113;DHT22;63692;47.338;8.520;2023-05-29T06:06:13;15.50;96.30
75113;DHT22;63692;47.338;8.520;2023-05-29T06:08:39;15.50;95.80
75113;DHT22;63692;47.338;8.520;2023-05-29T06:11:06;15.60;95.90
75113;DHT22;63692;47.338;8.520;2023-05-29T06:15:59;15.70;95.10
75113;DHT22;63692;47.338;8.520;2023-05-29T06:18:25;15.80;94.50
75113;DHT22;63692;47.338;8.520;2023-05-29T06:20:51;15.80;94.30
75113;DHT22;63692;47.338;8.520;2023-05-29T06:23:19;15.90;94.50
75113;DHT22;63692;47.338;8.520;2023-05-29T06:25:45;16.00;94.60
75113;DHT22;63692;47.338;8.520;2023-05-29T06:28:10;16.00;93.70
75113;DHT22;63692;47.338;8.520;2023-05-29T06:30:36;16.10;94.00
75113;DHT22;63692;47.338;8.520;2023-05-29T06:33:04;16.10;93.70
75113;DHT22;63692;47.338;8.520;2023-05-29T06:35:32;16.10;94.20
75113;DHT22;63692;47.338;8.520;2023-05-29T06:38:03;16.20;94.00
75113;DHT22;63692;47.338;8.520;2023-05-29T06:40:31;16.30;93.90
75113;DHT22;63692;47.338;8.520;2023-05-29T06:42:57;16.30;93.30
75113;DHT22;63692;47.338;8.520;2023-05-29T06:45:25;16.30;93.30
75113;DHT22;63692;47.338;8.520;2023-05-29T06:47:57;16.40;93.70
75113;DHT22;63692;47.338;8.520;2023-05-29T06:50:22;16.50;93.10
75113;DHT22;63692;47.338;8.520;2023-05-29T06:52:50;16.50;92.90
75113;DHT22;63692;47.338;8.520;2023-05-29T06:55:16;16.50;92.90
75113;DHT22;63692;47.338;8.520;2023-05-29T06:57:42;16.60;92.70
75113;DHT22;63692;47.338;8.520;2023-05-29T07:00:08;16.60;92.60
75113;DHT22;63692;47.338;8.520;2023-05-29T07:02:35;16.60;92.70
75113;DHT22;63692;47.338;8.520;2023-05-29T07:05:01;16.70;92.60
75113;DHT22;63692;47.338;8.520;2023-05-29T07:07:27;16.70;92.50
75113;DHT22;63692;47.338;8.520;2023-05-29T07:09:52;16.80;92.60
75113;DHT22;63692;47.338;8.520;2023-05-29T07:12:18;16.80;92.50
75113;DHT22;63692;47.338;8.520;2023-05-29T07:14:43;16.90;92.50
75113;DHT22;63692;47.338;8.520;2023-05-29T07:17:10;16.90;92.30
75113;DHT22;63692;47.338;8.520;2023-05-29T07:19:35;16.90;92.10
75113;DHT22;63692;47.338;8.520;2023-05-29T07:22:01;17.00;92.20
75113;DHT22;63692;47.338;8.520;2023-05-29T07:24:26;17.00;92.00
75113;DHT22;63692;47.338;8.520;2023-05-29T07:26:52;17.10;91.60
75113;DHT22;63692;47.338;8.520;2023-05-29T07:29:18;17.10;91.60
75113;DHT22;63692;47.338;8.520;2023-05-29T07:31:46;17.20;91.40
75113;DHT22;63692;47.338;8.520;2023-05-29T07:34:12;17.20;91.50
75113;DHT22;63692;47.338;8.520;2023-05-29T07:37:05;17.30;91.40
75113;DHT22;63692;47.338;8.520;2023-05-29T07:39:33;17.30;90.90
75113;DHT22;63692;47.338;8.520;2023-05-29T07:41:59;17.40;90.80
75113;DHT22;63692;47.338;8.520;2023-05-29T07:44:26;17.40;90.90
75113;DHT22;63692;47.338;8.520;2023-05-29T07:46:52;17.40;90.30
75113;DHT22;63692;47.338;8.520;2023-05-29T07:49:19;17.50;90.40
75113;DHT22;63692;47.338;8.520;2023-05-29T07:51:44;17.50;90.00
75113;DHT22;63692;47.338;8.520;2023-05-29T07:54:10;17.50;90.10
75113;DHT22;63692;47.338;8.520;2023-05-29T07:56:36;17.60;90.40
75113;DHT22;63692;47.338;8.520;2023-05-29T07:59:01;17.60;90.20
75113;DHT22;63692;47.338;8.520;2023-05-29T08:01:28;17.70;90.20
75113;DHT22;63692;47.338;8.520;2023-05-29T08:03:54;17.70;90.00
75113;DHT22;63692;47.338;8.520;2023-05-29T08:06:20;17.80;89.70
75113;DHT22;63692;47.338;8.520;2023-05-29T08:08:46;17.80;89.80
75113;DHT22;63692;47.338;8.520;2023-05-29T08:11:12;17.90;89.90
75113;DHT22;63692;47.338;8.520;2023-05-29T08:13:38;17.90;88.70
75113;DHT22;63692;47.338;8.520;2023-05-29T08:16:04;17.90;90.00
75113;DHT22;63692;47.338;8.520;2023-05-29T08:18:31;18.00;88.40
75113;DHT22;63692;47.338;8.520;2023-05-29T08:20:58;18.00;89.00
75113;DHT22;63692;47.338;8.520;2023-05-29T08:23:24;18.10;88.70
75113;DHT22;63692;47.338;8.520;2023-05-29T08:25:49;18.10;88.40
75113;DHT22;63692;47.338;8.520;2023-05-29T08:28:15;18.10;90.00
75113;DHT22;63692;47.338;8.520;2023-05-29T08:30:41;18.20;89.50
75113;DHT22;63692;47.338;8.520;2023-05-29T08:33:07;18.30;86.70
75113;DHT22;63692;47.338;8.520;2023-05-29T08:35:33;18.30;88.70
75113;DHT22;63692;47.338;8.520;2023-05-29T08:37:59;18.30;88.80
75113;DHT22;63692;47.338;8.520;2023-05-29T08:40:25;18.30;89.80
75113;DHT22;63692;47.338;8.520;2023-05-29T08:42:56;18.40;87.90
75113;DHT22;63692;47.338;8.520;2023-05-29T08:45:22;18.50;88.50
75113;DHT22;63692;47.338;8.520;2023-05-29T08:47:53;18.50;89.20
75113;DHT22;63692;47.338;8.520;2023-05-29T08:50:20;18.50;89.60
75113;DHT22;63692;47.338;8.520;2023-05-29T08:52:46;18.60;89.10
75113;DHT22;63692;47.338;8.520;2023-05-29T08:55:13;18.70;88.70
75113;DHT22;63692;47.338;8.520;2023-05-29T08:57:40;18.80;88.50
75113;DHT22;63692;47.338;8.520;2023-05-29T09:00:08;18.80;89.00
75113;DHT22;63692;47.338;8.520;2023-05-29T09:02:42;18.80;89.00
75113;DHT22;63692;47.338;8.520;2023-05-29T09:05:11;18.90;88.40
75113;DHT22;63692;47.338;8.520;2023-05-29T09:07:38;18.90;87.40
75113;DHT22;63692;47.338;8.520;2023-05-29T09:10:08;18.90;88.30
75113;DHT22;63692;47.338;8.520;2023-05-29T09:12:35;18.90;88.20
75113;DHT22;63692;47.338;8.520;2023-05-29T09:15:01;19.00;88.90
75113;DHT22;63692;47.338;8.520;2023-05-29T09:17:34;19.10;87.60
75113;DHT22;63692;47.338;8.520;2023-05-29T09:20:00;19.10;87.90
75113;DHT22;63692;47.338;8.520;2023-05-29T09:22:26;19.10;88.00
75113;DHT22;63692;47.338;8.520;2023-05-29T09:24:52;19.20;86.70
75113;DHT22;63692;47.338;8.520;2023-05-29T09:27:18;19.20;86.30
75113;DHT22;63692;47.338;8.520;2023-05-29T09:29:45;19.20;87.30
75113;DHT22;63692;47.338;8.520;2023-05-29T09:32:15;19.30;87.50
75113;DHT22;63692;47.338;8.520;2023-05-29T09:34:42;19.30;88.30
75113;DHT22;63692;47.338;8.520;2023-05-29T09:37:09;19.40;85.90
75113;DHT22;63692;47.338;8.520;2023-05-29T09:39:45;19.40;85.30
75113;DHT22;63692;47.338;8.520;2023-05-29T09:42:12;19.50;85.80
75113;DHT22;63692;47.338;8.520;2023-05-29T09:44:44;19.50;85.80
75113;DHT22;63692;47.338;8.520;2023-05-29T09:47:13;19.60;85.80
75113;DHT22;63692;47.338;8.520;2023-05-29T09:49:42;19.70;85.20
75113;DHT22;63692;47.338;8.520;2023-05-29T09:52:11;19.80;85.00
75113;DHT22;63692;47.338;8.520;2023-05-29T09:54:43;19.90;83.90
75113;DHT22;63692;47.338;8.520;2023-05-29T09:57:16;19.90;84.00
75113;DHT22;63692;47.338;8.520;2023-05-29T09:59:43;19.90;83.00
75113;DHT22;63692;47.338;8.520;2023-05-29T10:02:17;20.00;83.40
75113;DHT22;63692;47.338;8.520;2023-05-29T10:04:43;20.10;83.80
75113;DHT22;63692;47.338;8.520;2023-05-29T10:07:25;20.10;83.40
75113;DHT22;63692;47.338;8.520;2023-05-29T10:10:03;20.30;83.10
75113;DHT22;63692;47.338;8.520;2023-05-29T10:12:32;20.20;83.00
75113;DHT22;63692;47.338;8.520;2023-05-29T10:15:00;20.40;81.70
75113;DHT22;63692;47.338;8.520;2023-05-29T10:17:34;20.40;82.60
75113;DHT22;63692;47.338;8.520;2023-05-29T10:20:02;20.40;81.50
75113;DHT22;63692;47.338;8.520;2023-05-29T10:22:31;20.50;82.80
75113;DHT22;63692;47.338;8.520;2023-05-29T10:24:58;20.50;82.40
75113;DHT22;63692;47.338;8.520;2023-05-29T10:27:25;20.50;81.30
75113;DHT22;63692;47.338;8.520;2023-05-29T10:30:06;20.50;81.80
75113;DHT22;63692;47.338;8.520;2023-05-29T10:50:03;21.10;81.20
75113;DHT22;63692;47.338;8.520;2023-05-29T10:52:32;21.10;81.90
75113;DHT22;63692;47.338;8.520;2023-05-29T10:54:58;21.10;81.40
75113;DHT22;63692;47.338;8.520;2023-05-29T10:57:28;21.20;80.20
75113;DHT22;63692;47.338;8.520;2023-05-29T11:00:07;21.30;78.80
75113;DHT22;63692;47.338;8.520;2023-05-29T11:02:52;21.40;78.90
75113;DHT22;63692;47.338;8.520;2023-05-29T11:05:19;21.40;79.30
75113;DHT22;63692;47.338;8.520;2023-05-29T11:07:56;21.50;78.80
75113;DHT22;63692;47.338;8.520;2023-05-29T11:10:55;21.50;76.40
75113;DHT22;63692;47.338;8.520;2023-05-29T11:13:54;21.60;76.70
75113;DHT22;63692;47.338;8.520;2023-05-29T11:18:59;21.70;76.20
75113;DHT22;63692;47.338;8.520;2023-05-29T11:24:02;21.70;76.10
75113;DHT22;63692;47.338;8.520;2023-05-29T11:26:32;21.70;76.20
75113;DHT22;63692;47.338;8.520;2023-05-29T11:29:03;21.80;75.70
75113;DHT22;63692;47.338;8.520;2023-05-29T11:31:32;21.70;76.10
75113;DHT22;63692;47.338;8.520;2023-05-29T11:34:03;21.80;74.10
75113;DHT22;63692;47.338;8.520;2023-05-29T11:36:32;21.90;74.20
75113;DHT22;63692;47.338;8.520;2023-05-29T11:38:59;21.90;75.30
75113;DHT22;63692;47.338;8.520;2023-05-29T11:46:28;22.00;72.60
75113;DHT22;63692;47.338;8.520;2023-05-29T11:48:58;22.10;70.20
75113;DHT22;63692;47.338;8.520;2023-05-29T11:51:23;22.20;71.00
75113;DHT22;63692;47.338;8.520;2023-05-29T11:53:49;22.20;71.50
75113;DHT22;63692;47.338;8.520;2023-05-29T11:56:18;22.20;72.40
75113;DHT22;63692;47.338;8.520;2023-05-29T11:58:45;22.30;71.80
75113;DHT22;63692;47.338;8.520;2023-05-29T12:01:11;22.30;70.20
75113;DHT22;63692;47.338;8.520;2023-05-29T12:03:40;22.30;71.00
75113;DHT22;63692;47.338;8.520;2023-05-29T12:06:07;22.40;69.70
75113;DHT22;63692;47.338;8.520;2023-05-29T12:08:35;22.40;71.40
75113;DHT22;63692;47.338;8.520;2023-05-29T12:11:01;22.50;70.00
75113;DHT22;63692;47.338;8.520;2023-05-29T12:13:26;22.50;68.20
75113;DHT22;63692;47.338;8.520;2023-05-29T12:15:56;22.50;69.00
75113;DHT22;63692;47.338;8.520;2023-05-29T12:18:22;22.60;68.60
75113;DHT22;63692;47.338;8.520;2023-05-29T12:20:48;22.60;69.30
75113;DHT22;63692;47.338;8.520;2023-05-29T12:23:14;22.60;67.10
75113;DHT22;63692;47.338;8.520;2023-05-29T12:25:39;22.70;67.20
75113;DHT22;63692;47.338;8.520;2023-05-29T12:28:05;22.70;64.80
75113;DHT22;63692;47.338;8.520;2023-05-29T12:30:36;22.80;64.40
75113;DHT22;63692;47.338;8.520;2023-05-29T12:33:02;22.90;63.70
75113;DHT22;63692;47.338;8.520;2023-05-29T12:35:29;22.90;62.90
75113;DHT22;63692;47.338;8.520;2023-05-29T12:38:01;23.00;62.90
75113;DHT22;63692;47.338;8.520;2023-05-29T12:40:28;23.10;64.00
75113;DHT22;63692;47.338;8.520;2023-05-29T12:43:14;23.10;63.30
75113;DHT22;63692;47.338;8.520;2023-05-29T12:45:40;23.20;62.20
75113;DHT22;63692;47.338;8.520;2023-05-29T12:48:06;23.30;59.60
75113;DHT22;63692;47.338;8.520;2023-05-29T12:50:38;23.30;62.10
75113;DHT22;63692;47.338;8.520;2023-05-29T12:53:12;23.40;62.00
75113;DHT22;63692;47.338;8.520;2023-05-29T12:55:39;23.50;62.50
75113;DHT22;63692;47.338;8.520;2023-05-29T12:58:12;23.50;62.10
75113;DHT22;63692;47.338;8.520;2023-05-29T13:00:41;23.60;60.70
75113;DHT22;63692;47.338;8.520;2023-05-29T13:03:08;23.70;62.40
75113;DHT22;63692;47.338;8.520;2023-05-29T13:05:34;23.70;60.30
75113;DHT22;63692;47.338;8.520;2023-05-29T13:08:01;23.80;60.20
75113;DHT22;63692;47.338;8.520;2023-05-29T13:10:27;23.90;59.80
75113;DHT22;63692;47.338;8.520;2023-05-29T13:12:54;23.90;60.40
75113;DHT22;63692;47.338;8.520;2023-05-29T13:15:23;23.90;60.40
75113;DHT22;63692;47.338;8.520;2023-05-29T13:17:50;23.90;61.00
75113;DHT22;63692;47.338;8.520;2023-05-29T13:20:16;23.90;59.70
75113;DHT22;63692;47.338;8.520;2023-05-29T13:22:44;23.90;60.00
75113;DHT22;63692;47.338;8.520;2023-05-29T13:25:11;23.90;59.00
75113;DHT22;63692;47.338;8.520;2023-05-29T13:27:40;23.90;62.10
75113;DHT22;63692;47.338;8.520;2023-05-29T13:30:07;23.90;58.40
75113;DHT22;63692;47.338;8.520;2023-05-29T13:32:34;24.00;59.10
75113;DHT22;63692;47.338;8.520;2023-05-29T13:35:00;24.00;57.00
75113;DHT22;63692;47.338;8.520;2023-05-29T13:37:26;24.00;56.70
75113;DHT22;63692;47.338;8.520;2023-05-29T13:39:53;24.00;59.30
75113;DHT22;63692;47.338;8.520;2023-05-29T13:42:19;24.10;58.80
75113;DHT22;63692;47.338;8.520;2023-05-29T13:44:45;24.00;60.20
75113;DHT22;63692;47.338;8.520;2023-05-29T13:47:11;24.00;57.40
75113;DHT22;63692;47.338;8.520;2023-05-29T13:49:36;24.10;56.80
75113;DHT22;63692;47.338;8.520;2023-05-29T13:52:03;24.00;56.50
75113;DHT22;63692;47.338;8.520;2023-05-29T13:54:28;24.10;56.40
75113;DHT22;63692;47.338;8.520;2023-05-29T13:57:04;24.10;56.90
75113;DHT22;63692;47.338;8.520;2023-05-29T13:59:34;24.10;57.00
75113;DHT22;63692;47.338;8.520;2023-05-29T14:02:00;24.10;57.10
75113;DHT22;63692;47.338;8.520;2023-05-29T14:04:26;24.20;55.70
75113;DHT22;63692;47.338;8.520;2023-05-29T14:06:52;24.20;57.20
75113;DHT22;63692;47.338;8.520;2023-05-29T14:09:18;24.20;57.30
75113;DHT22;63692;47.338;8.520;2023-05-29T14:11:52;24.20;56.80
75113;DHT22;63692;47.338;8.520;2023-05-29T14:14:17;24.30;56.40
75113;DHT22;63692;47.338;8.520;2023-05-29T14:16:43;24.30;57.80
75113;DHT22;63692;47.338;8.520;2023-05-29T14:19:09;24.30;56.50
75113;DHT22;63692;47.338;8.520;2023-05-29T14:21:34;24.40;55.80
75113;DHT22;63692;47.338;8.520;2023-05-29T14:24:01;24.40;57.50
75113;DHT22;63692;47.338;8.520;2023-05-29T14:26:27;24.40;56.50
75113;DHT22;63692;47.338;8.520;2023-05-29T14:28:52;24.50;55.10
75113;DHT22;63692;47.338;8.520;2023-05-29T14:31:18;24.50;55.70
75113;DHT22;63692;47.338;8.520;2023-05-29T14:33:43;24.50;55.10
75113;DHT22;63692;47.338;8.520;2023-05-29T14:36:09;24.60;56.50
75113;DHT22;63692;47.338;8.520;2023-05-29T14:38:35;24.60;57.20
75113;DHT22;63692;47.338;8.520;2023-05-29T14:41:02;24.60;54.30
75113;DHT22;63692;47.338;8.520;2023-05-29T14:43:27;24.60;54.40
75113;DHT22;63692;47.338;8.520;2023-05-29T14:45:53;24.60;55.30
75113;DHT22;63692;47.338;8.520;2023-05-29T14:48:19;24.70;55.50
75113;DHT22;63692;47.338;8.520;2023-05-29T14:50:44;24.70;56.80
75113;DHT22;63692;47.338;8.520;2023-05-29T14:53:10;24.80;57.10
75113;DHT22;63692;47.338;8.520;2023-05-29T14:55:36;24.80;55.00
75113;DHT22;63692;47.338;8.520;2023-05-29T14:58:03;24.80;53.40
75113;DHT22;63692;47.338;8.520;2023-05-29T15:00:29;24.80;55.50
75113;DHT22;63692;47.338;8.520;2023-05-29T15:02:55;24.80;56.20
75113;DHT22;63692;47.338;8.520;2023-05-29T15:05:27;24.80;55.80
75113;DHT22;63692;47.338;8.520;2023-05-29T15:07:53;24.70;55.00
75113;DHT22;63692;47.338;8.520;2023-05-29T15:10:23;24.70;55.70
75113;DHT22;63692;47.338;8.520;2023-05-29T15:12:50;24.70;55.60
75113;DHT22;63692;47.338;8.520;2023-05-29T15:15:24;24.80;53.90
75113;DHT22;63692;47.338;8.520;2023-05-29T15:17:50;24.80;56.30
75113;DHT22;63692;47.338;8.520;2023-05-29T15:20:19;24.80;55.30
75113;DHT22;63692;47.338;8.520;2023-05-29T15:22:45;24.80;53.60
75113;DHT22;63692;47.338;8.520;2023-05-29T15:25:11;24.90;51.90
75113;DHT22;63692;47.338;8.520;2023-05-29T15:27:37;24.90;53.50
75113;DHT22;63692;47.338;8.520;2023-05-29T15:30:16;24.90;52.40
75113;DHT22;63692;47.338;8.520;2023-05-29T15:32:44;24.90;54.50
75113;DHT22;63692;47.338;8.520;2023-05-29T15:35:11;24.90;56.50
75113;DHT22;63692;47.338;8.520;2023-05-29T15:37:38;24.90;56.10
75113;DHT22;63692;47.338;8.520;2023-05-29T15:40:04;25.00;56.00
75113;DHT22;63692;47.338;8.520;2023-05-29T15:42:31;25.00;56.50
75113;DHT22;63692;47.338;8.520;2023-05-29T15:44:57;24.90;52.30
75113;DHT22;63692;47.338;8.520;2023-05-29T15:47:23;24.90;52.10
75113;DHT22;63692;47.338;8.520;2023-05-29T15:49:49;25.00;52.60
75113;DHT22;63692;47.338;8.520;2023-05-29T15:52:15;24.90;52.90
75113;DHT22;63692;47.338;8.520;2023-05-29T15:54:40;25.00;54.20
75113;DHT22;63692;47.338;8.520;2023-05-29T15:57:06;25.10;53.40
75113;DHT22;63692;47.338;8.520;2023-05-29T15:59:33;25.10;51.50
75113;DHT22;63692;47.338;8.520;2023-05-29T16:01:59;25.10;53.10
75113;DHT22;63692;47.338;8.520;2023-05-29T16:04:26;25.20;53.70
75113;DHT22;63692;47.338;8.520;2023-05-29T16:06:51;25.20;50.70
75113;DHT22;63692;47.338;8.520;2023-05-29T16:09:17;25.30;54.80
75113;DHT22;63692;47.338;8.520;2023-05-29T16:11:43;25.30;50.60
75113;DHT22;63692;47.338;8.520;2023-05-29T16:14:09;25.30;52.30
75113;DHT22;63692;47.338;8.520;2023-05-29T16:16:35;25.30;52.10
75113;DHT22;63692;47.338;8.520;2023-05-29T16:19:03;25.30;52.30
75113;DHT22;63692;47.338;8.520;2023-05-29T16:21:29;25.30;49.00
75113;DHT22;63692;47.338;8.520;2023-05-29T16:23:56;25.30;49.00
75113;DHT22;63692;47.338;8.520;2023-05-29T16:26:26;25.30;51.90
75113;DHT22;63692;47.338;8.520;2023-05-29T16:28:53;25.20;53.20
75113;DHT22;63692;47.338;8.520;2023-05-29T16:31:19;25.10;50.20
75113;DHT22;63692;47.338;8.520;2023-05-29T16:33:45;25.10;50.00
75113;DHT22;63692;47.338;8.520;2023-05-29T16:36:11;25.00;48.90
75113;DHT22;63692;47.338;8.520;2023-05-29T16:38:37;24.90;50.10
75113;DHT22;63692;47.338;8.520;2023-05-29T16:41:03;24.80;51.40
75113;DHT22;63692;47.338;8.520;2023-05-29T16:43:29;24.80;52.60
75113;DHT22;63692;47.338;8.520;2023-05-29T16:45:55;24.80;51.80
75113;DHT22;63692;47.338;8.520;2023-05-29T16:50:48;24.80;50.90
75113;DHT22;63692;47.338;8.520;2023-05-29T16:53:13;24.70;50.70
75113;DHT22;63692;47.338;8.520;2023-05-29T16:55:39;24.70;51.00
75113;DHT22;63692;47.338;8.520;2023-05-29T16:58:06;24.70;49.10
75113;DHT22;63692;47.338;8.520;2023-05-29T17:00:31;24.60;49.80
75113;DHT22;63692;47.338;8.520;2023-05-29T17:02:57;24.60;48.40
75113;DHT22;63692;47.338;8.520;2023-05-29T17:05:23;24.60;48.90
75113;DHT22;63692;47.338;8.520;2023-05-29T17:07:48;24.60;49.70
75113;DHT22;63692;47.338;8.520;2023-05-29T17:10:14;24.50;49.10
75113;DHT22;63692;47.338;8.520;2023-05-29T17:12:40;24.50;50.00
75113;DHT22;63692;47.338;8.520;2023-05-29T17:15:07;24.50;50.40
75113;DHT22;63692;47.338;8.520;2023-05-29T17:17:33;24.40;50.50
75113;DHT22;63692;47.338;8.520;2023-05-29T17:19:59;24.40;49.60
75113;DHT22;63692;47.338;8.520;2023-05-29T17:22:24;24.40;50.50
75113;DHT22;63692;47.338;8.520;2023-05-29T17:24:50;24.30;49.70
75113;DHT22;63692;47.338;8.520;2023-05-29T17:27:16;24.30;50.30
75113;DHT22;63692;47.338;8.520;2023-05-29T17:29:41;24.30;49.70
75113;DHT22;63692;47.338;8.520;2023-05-29T17:32:07;24.20;50.80
75113;DHT22;63692;47.338;8.520;2023-05-29T17:34:36;24.20;51.20
75113;DHT22;63692;47.338;8.520;2023-05-29T17:37:02;24.20;51.20
75113;DHT22;63692;47.338;8.520;2023-05-29T17:39:28;24.10;51.20
75113;DHT22;63692;47.338;8.520;2023-05-29T17:41:53;24.10;51.30
75113;DHT22;63692;47.338;8.520;2023-05-29T17:44:19;24.10;51.20
75113;DHT22;63692;47.338;8.520;2023-05-29T17:46:45;24.00;52.20
75113;DHT22;63692;47.338;8.520;2023-05-29T17:49:11;24.00;53.50
75113;DHT22;63692;47.338;8.520;2023-05-29T17:51:36;24.00;52.50
75113;DHT22;63692;47.338;8.520;2023-05-29T17:54:03;23.90;52.70
75113;DHT22;63692;47.338;8.520;2023-05-29T17:56:36;23.80;53.00
75113;DHT22;63692;47.338;8.520;2023-05-29T17:59:03;23.80;53.00
75113;DHT22;63692;47.338;8.520;2023-05-29T18:01:28;23.80;53.10
75113;DHT22;63692;47.338;8.520;2023-05-29T18:03:54;23.70;53.40
75113;DHT22;63692;47.338;8.520;2023-05-29T18:06:19;23.70;53.50
75113;DHT22;63692;47.338;8.520;2023-05-29T18:08:45;23.70;54.10
75113;DHT22;63692;47.338;8.520;2023-05-29T18:11:11;23.60;53.80
75113;DHT22;63692;47.338;8.520;2023-05-29T18:13:36;23.60;54.30
75113;DHT22;63692;47.338;8.520;2023-05-29T18:16:02;23.50;54.50
75113;DHT22;63692;47.338;8.520;2023-05-29T18:18:28;23.40;54.90
75113;DHT22;63692;47.338;8.520;2023-05-29T18:20:54;23.40;54.80
75113;DHT22;63692;47.338;8.520;2023-05-29T18:23:20;23.40;54.70
75113;DHT22;63692;47.338;8.520;2023-05-29T18:25:46;23.30;54.90
75113;DHT22;63692;47.338;8.520;2023-05-29T18:28:12;23.30;55.20
75113;DHT22;63692;47.338;8.520;2023-05-29T18:30:38;23.20;55.20
75113;DHT22;63692;47.338;8.520;2023-05-29T18:33:04;23.20;55.20
75113;DHT22;63692;47.338;8.520;2023-05-29T18:35:30;23.10;55.20
75113;DHT22;63692;47.338;8.520;2023-05-29T18:37:55;23.10;55.30
75113;DHT22;63692;47.338;8.520;2023-05-29T18:40:21;23.00;55.60
75113;DHT22;63692;47.338;8.520;2023-05-29T18:42:47;22.90;55.90
75113;DHT22;63692;47.338;8.520;2023-05-29T18:45:12;22.90;56.30
75113;DHT22;63692;47.338;8.520;2023-05-29T18:47:38;22.80;56.50
75113;DHT22;63692;47.338;8.520;2023-05-29T18:50:04;22.80;55.80
75113;DHT22;63692;47.338;8.520;2023-05-29T18:52:29;22.70;55.90
75113;DHT22;63692;47.338;8.520;2023-05-29T18:54:55;22.60;56.40
75113;DHT22;63692;47.338;8.520;2023-05-29T18:57:21;22.60;56.20
75113;DHT22;63692;47.338;8.520;2023-05-29T18:59:46;22.50;56.50
75113;DHT22;63692;47.338;8.520;2023-05-29T19:02:14;22.40;56.50
75113;DHT22;63692;47.338;8.520;2023-05-29T19:04:39;22.40;56.60
75113;DHT22;63692;47.338;8.520;2023-05-29T19:07:05;22.30;56.80
75113;DHT22;63692;47.338;8.520;2023-05-29T19:09:31;22.30;57.10
75113;DHT22;63692;47.338;8.520;2023-05-29T19:11:57;22.20;57.00
75113;DHT22;63692;47.338;8.520;2023-05-29T19:14:22;22.20;56.90
75113;DHT22;63692;47.338;8.520;2023-05-29T19:16:48;22.10;57.10
75113;DHT22;63692;47.338;8.520;2023-05-29T19:19:13;22.10;57.20
75113;DHT22;63692;47.338;8.520;2023-05-29T19:21:41;22.00;57.30
75113;DHT22;63692;47.338;8.520;2023-05-29T19:24:07;22.00;57.20
75113;DHT22;63692;47.338;8.520;2023-05-29T19:26:34;21.90;57.20
75113;DHT22;63692;47.338;8.520;2023-05-29T19:38:49;21.70;56.70
75113;DHT22;63692;47.338;8.520;2023-05-29T19:48:38;21.60;56.70
